Time;durP1;ratioP1;P1;durP2;ratioP2;P2;SDS_P1;SDS_P2;PMS_P1;PMS_P2;Temp;Humidity;BMP_temperature;BMP_pressure;BME280_temperature;BME280_humidity;BME280_pressure;Samples;Min_cycle;Max_cycle;Signal;HPM_P1;HPM_P2
2023/07/18 00:01:07;;;;;;;8.93;3.05;;;13.90;99.90;;;;;;5072415;28;20528;-79
2023/07/18 00:03:34;;;;;;;8.77;2.92;;;13.80;99.90;;;;;;5088454;28;20131;-79
2023/07/18 00:06:00;;;;;;;9.02;2.92;;;13.80;99.90;;;;;;5105639;28;20127;-79
2023/07/18 00:08:27;;;;;;;8.48;3.17;;;13.80;99.90;;;;;;5104760;28;20033;-79
2023/07/18 00:10:54;;;;;;;12.68;2.80;;;13.80;99.90;;;;;;5088627;28;20495;-79
2023/07/18 00:13:20;;;;;;;8.48;2.67;;;13.80;99.90;;;;;;5088273;28;20127;-79
2023/07/18 00:15:47;;;;;;;8.32;2.83;;;13.70;99.90;;;;;;5072031;28;20044;-80
2023/07/18 00:18:14;;;;;;;9.30;2.63;;;13.70;99.90;;;;;;5104853;28;20051;-79
2023/07/18 00:20:41;;;;;;;12.15;3.03;;;13.70;99.90;;;;;;5104980;28;20037;-79
2023/07/18 00:23:10;;;;;;;10.15;2.80;;;13.70;99.90;;;;;;5088592;28;20551;-79
2023/07/18 00:25:37;;;;;;;12.00;3.03;;;13.60;99.90;;;;;;5087923;28;20086;-79
2023/07/18 00:28:04;;;;;;;9.68;3.13;;;13.60;99.90;;;;;;5071691;28;20037;-79
2023/07/18 00:30:31;;;;;;;10.20;2.92;;;13.60;99.90;;;;;;5071715;28;20144;-79
2023/07/18 00:32:58;;;;;;;7.45;2.58;;;13.60;99.90;;;;;;5088238;28;20195;-79
2023/07/18 00:35:26;;;;;;;8.07;2.97;;;13.60;99.90;;;;;;5104455;28;20048;-79
2023/07/18 00:37:53;;;;;;;9.65;3.10;;;13.50;99.90;;;;;;5087857;28;20048;-79
2023/07/18 00:40:20;;;;;;;13.55;2.97;;;13.50;99.90;;;;;;5087423;28;20405;-79
2023/07/18 00:42:49;;;;;;;6.07;2.50;;;13.50;99.90;;;;;;5070479;28;20045;-79
2023/07/18 00:45:16;;;;;;;10.70;3.00;;;13.50;99.90;;;;;;5087496;28;20043;-79
2023/07/18 00:47:45;;;;;;;6.05;2.50;;;13.50;99.90;;;;;;5087342;28;20512;-80
2023/07/18 00:50:15;;;;;;;9.15;3.10;;;13.40;99.90;;;;;;5088134;28;20076;-79
2023/07/18 00:52:47;;;;;;;6.63;2.30;;;13.40;99.90;;;;;;5087229;28;20079;-79
2023/07/18 00:55:15;;;;;;;8.05;2.60;;;13.30;99.90;;;;;;5121430;28;20044;-79
2023/07/18 00:57:43;;;;;;;8.02;2.65;;;13.30;99.90;;;;;;5087211;28;20698;-79
2023/07/18 01:00:13;;;;;;;7.10;2.53;;;13.30;99.90;;;;;;5071232;28;20048;-79
2023/07/18 01:02:42;;;;;;;11.93;2.78;;;13.30;99.90;;;;;;5103478;28;20047;-79
2023/07/18 01:05:09;;;;;;;10.10;2.92;;;13.30;99.90;;;;;;5087135;28;20673;-80
2023/07/18 01:07:40;;;;;;;9.40;3.00;;;13.30;99.90;;;;;;5087116;28;20082;-79
2023/07/18 01:10:23;;;;;;;10.27;2.80;;;13.30;99.90;;;;;;5071219;28;20048;-79
2023/07/18 01:12:55;;;;;;;14.98;2.80;;;13.20;99.90;;;;;;5071005;28;20492;-79
2023/07/18 01:15:23;;;;;;;6.13;2.65;;;13.20;99.90;;;;;;5087538;28;20048;-79
2023/07/18 01:17:50;;;;;;;8.55;2.90;;;13.20;99.90;;;;;;5086798;28;20040;-79
2023/07/18 01:20:22;;;;;;;7.63;2.90;;;13.20;99.90;;;;;;5121017;28;20064;-79
2023/07/18 01:22:54;;;;;;;9.85;2.90;;;13.20;99.90;;;;;;5070601;28;20056;-79
2023/07/18 01:25:21;;;;;;;7.55;3.13;;;13.20;99.90;;;;;;5070087;28;20396;-79
2023/07/18 01:27:51;;;;;;;7.20;2.63;;;13.20;99.90;;;;;;5120135;28;20044;-79
2023/07/18 01:30:19;;;;;;;8.48;3.10;;;13.10;99.90;;;;;;5087204;28;20051;-79
2023/07/18 01:32:48;;;;;;;10.98;3.15;;;13.10;99.90;;;;;;5086763;28;21017;-80
2023/07/18 01:35:17;;;;;;;8.43;2.72;;;13.10;99.90;;;;;;5086978;28;20042;-79
2023/07/18 01:37:46;;;;;;;8.85;3.00;;;13.10;99.90;;;;;;5102868;28;20131;-79
2023/07/18 01:40:15;;;;;;;9.60;3.20;;;13.10;99.90;;;;;;5103446;28;20048;-79
2023/07/18 01:42:42;;;;;;;8.05;3.10;;;13.10;99.90;;;;;;5070362;28;20051;-79
2023/07/18 01:45:10;;;;;;;8.70;3.05;;;13.10;99.90;;;;;;5070035;28;20412;-79
2023/07/18 01:47:37;;;;;;;9.75;3.00;;;13.10;99.90;;;;;;5086197;28;20040;-79
2023/07/18 01:50:06;;;;;;;11.02;3.35;;;13.00;99.90;;;;;;5103180;28;20497;-79
2023/07/18 01:52:33;;;;;;;10.43;3.05;;;13.10;99.90;;;;;;5069502;28;20105;-79
2023/07/18 01:55:02;;;;;;;12.38;3.10;;;13.10;99.90;;;;;;5069683;28;20041;-79
2023/07/18 01:57:36;;;;;;;8.30;2.92;;;13.10;99.90;;;;;;5086573;28;20700;-79
2023/07/18 02:00:04;;;;;;;11.48;3.28;;;13.10;99.90;;;;;;5086640;28;20036;-79
2023/07/18 02:02:31;;;;;;;10.43;2.97;;;13.00;99.90;;;;;;5085870;28;20044;-79
2023/07/18 02:04:58;;;;;;;15.30;3.40;;;13.10;99.90;;;;;;5086643;28;20036;-79
2023/07/18 02:07:27;;;;;;;8.23;2.95;;;13.10;99.90;;;;;;5086998;28;20045;-79
2023/07/18 02:09:54;;;;;;;8.25;3.00;;;13.10;99.90;;;;;;5086287;28;20041;-79
2023/07/18 02:12:21;;;;;;;10.18;3.95;;;13.10;99.90;;;;;;5086651;28;20066;-79
2023/07/18 02:14:47;;;;;;;7.88;3.30;;;13.10;99.90;;;;;;5103091;28;20040;-79
2023/07/18 02:17:14;;;;;;;7.68;3.30;;;13.10;99.90;;;;;;5103249;28;20052;-79
2023/07/18 02:19:41;;;;;;;8.73;3.20;;;13.00;99.90;;;;;;5086112;28;20056;-79
2023/07/18 02:22:07;;;;;;;11.15;3.15;;;13.00;99.90;;;;;;5069419;28;20408;-79
2023/07/18 02:24:34;;;;;;;11.10;3.58;;;13.00;99.90;;;;;;5069333;28;20051;-79
2023/07/18 02:27:01;;;;;;;11.32;4.30;;;13.00;99.90;;;;;;5119987;28;20040;-79
2023/07/18 02:29:28;;;;;;;8.65;3.40;;;13.00;99.90;;;;;;5102984;28;20047;-79
2023/07/18 02:31:54;;;;;;;14.57;4.03;;;13.00;99.90;;;;;;5069525;28;20665;-79
2023/07/18 02:34:22;;;;;;;11.38;3.45;;;13.00;99.90;;;;;;5086705;28;20109;-79
2023/07/18 02:36:49;;;;;;;12.40;3.22;;;13.00;99.90;;;;;;5086005;28;20051;-79
2023/07/18 02:39:15;;;;;;;8.00;3.65;;;13.00;99.90;;;;;;5069521;28;20036;-79
2023/07/18 02:41:42;;;;;;;7.57;2.88;;;13.00;99.90;;;;;;5069308;28;20369;-79
2023/07/18 02:44:10;;;;;;;9.57;3.22;;;13.00;99.90;;;;;;5102970;28;20054;-79
2023/07/18 02:46:37;;;;;;;8.88;3.72;;;13.00;99.90;;;;;;5069554;28;20840;-79
2023/07/18 02:49:04;;;;;;;10.95;3.55;;;13.00;99.90;;;;;;5086119;28;20045;-79
2023/07/18 02:51:31;;;;;;;8.23;3.28;;;13.00;99.90;;;;;;5102469;28;20047;-79
2023/07/18 02:53:57;;;;;;;7.70;3.33;;;13.00;99.90;;;;;;5069215;28;20239;-80
2023/07/18 02:56:24;;;;;;;9.68;3.45;;;13.00;99.90;;;;;;5069414;28;20044;-79
2023/07/18 02:58:51;;;;;;;12.73;3.10;;;13.00;99.90;;;;;;5085469;28;20123;-80
2023/07/18 03:01:20;;;;;;;6.80;3.33;;;13.00;99.90;;;;;;5085903;28;20075;-79
2023/07/18 03:03:47;;;;;;;14.20;3.30;;;13.00;99.90;;;;;;5085264;28;20568;-79
2023/07/18 03:06:15;;;;;;;8.75;3.30;;;13.00;99.90;;;;;;5070429;28;20131;-79
2023/07/18 03:08:42;;;;;;;9.73;3.35;;;13.00;99.90;;;;;;5072418;28;20094;-79
2023/07/18 03:11:09;;;;;;;10.35;3.17;;;13.00;99.90;;;;;;5072843;28;20041;-79
2023/07/18 03:13:36;;;;;;;10.75;3.33;;;12.90;99.90;;;;;;5072643;28;20120;-79
2023/07/18 03:16:04;;;;;;;7.88;2.97;;;12.90;99.90;;;;;;5071878;28;20040;-79
2023/07/18 03:18:31;;;;;;;8.48;3.28;;;12.90;99.90;;;;;;5071967;28;20127;-79
2023/07/18 03:20:58;;;;;;;8.80;3.30;;;12.90;99.90;;;;;;5088891;28;20036;-80
2023/07/18 03:23:26;;;;;;;14.73;3.55;;;12.90;99.90;;;;;;5089773;28;20044;-79
2023/07/18 03:25:52;;;;;;;10.77;3.42;;;12.90;99.90;;;;;;5088761;28;20086;-79
2023/07/18 03:28:19;;;;;;;14.32;3.33;;;12.90;99.90;;;;;;5072937;28;20052;-79
2023/07/18 03:30:46;;;;;;;9.38;3.05;;;12.90;99.90;;;;;;5072800;28;20484;-80
2023/07/18 03:33:15;;;;;;;11.23;3.55;;;12.90;99.90;;;;;;5121828;28;20134;-79
2023/07/18 03:35:41;;;;;;;10.50;3.50;;;12.90;99.90;;;;;;5071848;28;20127;-79
2023/07/18 03:38:08;;;;;;;9.30;3.55;;;12.90;99.90;;;;;;5089137;28;20131;-79
2023/07/18 03:40:35;;;;;;;9.45;3.42;;;12.90;99.90;;;;;;5089327;28;20033;-79
2023/07/18 03:43:01;;;;;;;8.15;3.53;;;12.90;99.90;;;;;;5072502;28;20032;-79
2023/07/18 03:45:28;;;;;;;12.15;3.88;;;12.90;99.90;;;;;;5089186;28;20033;-79
2023/07/18 03:47:55;;;;;;;9.70;3.40;;;12.90;99.90;;;;;;5071951;28;20052;-79
2023/07/18 03:50:22;;;;;;;9.13;3.42;;;12.90;99.90;;;;;;5105680;28;20049;-79
2023/07/18 03:52:49;;;;;;;15.40;4.20;;;13.00;99.90;;;;;;5071824;28;20040;-80
2023/07/18 03:55:15;;;;;;;7.93;3.10;;;13.00;99.90;;;;;;5072740;28;20029;-79
2023/07/18 03:57:43;;;;;;;9.20;3.35;;;13.00;99.90;;;;;;5072263;28;20075;-79
2023/07/18 04:00:13;;;;;;;10.00;3.53;;;13.00;99.90;;;;;;5088609;28;20055;-80
2023/07/18 04:02:42;;;;;;;12.00;3.90;;;13.00;99.90;;;;;;5072379;28;20041;-79
2023/07/18 04:05:11;;;;;;;7.43;3.20;;;13.10;99.90;;;;;;5104994;28;20360;-80
2023/07/18 04:07:38;;;;;;;10.63;3.13;;;13.00;99.90;;;;;;5072234;28;20047;-80
2023/07/18 04:10:05;;;;;;;10.55;3.53;;;13.10;99.90;;;;;;5104893;28;20129;-79
2023/07/18 04:12:32;;;;;;;8.30;3.50;;;13.10;99.90;;;;;;5088396;28;20502;-79
2023/07/18 04:14:58;;;;;;;8.55;3.40;;;13.10;99.90;;;;;;5088161;28;20147;-79
2023/07/18 04:17:25;;;;;;;10.82;3.97;;;13.10;99.90;;;;;;5104219;28;20045;-79
2023/07/18 04:19:52;;;;;;;12.23;3.53;;;13.10;99.90;;;;;;5087739;28;20048;-79
2023/07/18 04:22:19;;;;;;;10.82;3.55;;;13.10;99.90;;;;;;5088530;28;20047;-79
2023/07/18 04:24:46;;;;;;;9.65;4.03;;;13.10;99.90;;;;;;5088428;28;20067;-79
2023/07/18 04:27:13;;;;;;;11.45;3.58;;;13.20;99.90;;;;;;5087560;28;20036;-80
2023/07/18 04:29:40;;;;;;;9.80;3.92;;;13.20;99.90;;;;;;5071847;28;20492;-79
2023/07/18 04:32:07;;;;;;;13.65;3.70;;;13.20;99.90;;;;;;5088245;28;20055;-79
2023/07/18 04:34:33;;;;;;;10.35;3.50;;;13.20;99.90;;;;;;5071917;28;20675;-79
2023/07/18 04:37:00;;;;;;;8.82;3.33;;;13.30;99.90;;;;;;5070892;28;20050;-79
2023/07/18 04:39:27;;;;;;;13.15;3.85;;;13.30;99.90;;;;;;5088092;28;20174;-79
2023/07/18 04:41:54;;;;;;;10.70;3.95;;;13.30;99.90;;;;;;5071421;28;20052;-79
2023/07/18 04:44:22;;;;;;;9.82;3.53;;;13.30;99.90;;;;;;5071740;28;20044;-80
2023/07/18 04:46:49;;;;;;;9.45;3.67;;;13.40;99.90;;;;;;5087927;28;20102;-80
2023/07/18 04:49:16;;;;;;;12.05;3.35;;;13.40;99.90;;;;;;5087071;28;20406;-79
2023/07/18 04:51:43;;;;;;;14.45;3.80;;;13.50;99.90;;;;;;5071345;28;20429;-79
2023/07/18 04:54:09;;;;;;;9.63;3.88;;;13.50;99.90;;;;;;5104282;28;20044;-79
2023/07/18 04:56:36;;;;;;;9.95;3.95;;;13.60;99.90;;;;;;5087873;28;20079;-79
2023/07/18 04:59:03;;;;;;;8.95;3.60;;;13.60;99.90;;;;;;5087464;28;20045;-80
2023/07/18 05:01:29;;;;;;;13.45;3.78;;;13.60;99.90;;;;;;5087313;28;20046;-80
2023/07/18 05:03:58;;;;;;;12.65;3.60;;;13.70;99.90;;;;;;5087585;28;20530;-80
2023/07/18 05:06:25;;;;;;;9.70;4.03;;;13.70;99.90;;;;;;5087760;28;20082;-79
2023/07/18 05:08:53;;;;;;;11.00;4.20;;;13.70;99.90;;;;;;5103922;28;20036;-79
2023/07/18 05:11:20;;;;;;;10.68;4.30;;;13.70;99.90;;;;;;5087066;28;20041;-79
2023/07/18 05:13:47;;;;;;;11.45;4.10;;;13.80;99.90;;;;;;5087419;28;20048;-79
2023/07/18 05:16:13;;;;;;;9.90;4.22;;;13.80;99.90;;;;;;5104013;28;20095;-79
2023/07/18 05:18:40;;;;;;;10.23;4.45;;;13.80;99.90;;;;;;5070708;28;20051;-79
2023/07/18 05:21:07;;;;;;;13.80;4.47;;;13.80;99.90;;;;;;5103112;28;20093;-80
2023/07/18 05:23:33;;;;;;;12.15;4.32;;;13.80;99.90;;;;;;5087382;28;20044;-80
2023/07/18 05:26:00;;;;;;;11.68;5.13;;;13.80;99.90;;;;;;5087504;28;20485;-79
2023/07/18 05:28:27;;;;;;;11.57;5.00;;;13.90;99.90;;;;;;5070729;28;20174;-80
2023/07/18 05:30:54;;;;;;;11.30;4.80;;;13.90;99.90;;;;;;5086404;28;20044;-80
2023/07/18 05:33:20;;;;;;;11.32;4.82;;;14.00;99.90;;;;;;5103192;28;20059;-79
2023/07/18 05:35:47;;;;;;;11.45;4.47;;;14.00;99.90;;;;;;5087144;28;20044;-79
2023/07/18 05:38:14;;;;;;;13.43;4.47;;;14.10;99.90;;;;;;5086707;28;20127;-80
2023/07/18 05:40:41;;;;;;;10.65;4.38;;;14.10;99.90;;;;;;5086629;28;20500;-80
2023/07/18 05:43:08;;;;;;;11.43;4.82;;;14.20;99.90;;;;;;5086250;28;20037;-80
2023/07/18 05:45:35;;;;;;;11.25;4.53;;;14.20;99.90;;;;;;5086763;28;20040;-79
2023/07/18 05:48:02;;;;;;;12.52;4.95;;;14.20;99.90;;;;;;5069985;28;20113;-80
2023/07/18 05:50:29;;;;;;;12.35;4.53;;;14.30;99.90;;;;;;5086200;28;20135;-80
2023/07/18 05:52:56;;;;;;;16.00;5.00;;;14.40;99.90;;;;;;5086778;28;20132;-79
2023/07/18 05:55:22;;;;;;;11.85;4.43;;;14.50;99.90;;;;;;5086140;28;20135;-79
2023/07/18 05:57:49;;;;;;;9.23;4.30;;;14.60;99.90;;;;;;5086617;28;20517;-79
2023/07/18 06:00:16;;;;;;;12.45;4.38;;;14.80;99.90;;;;;;5089623;28;20040;-79
2023/07/18 06:02:43;;;;;;;12.10;4.30;;;14.90;99.90;;;;;;5069729;28;20481;-80
2023/07/18 06:05:10;;;;;;;10.50;4.28;;;15.10;99.90;;;;;;5102893;28;20102;-80
2023/07/18 06:07:37;;;;;;;16.58;4.35;;;15.20;99.90;;;;;;5069653;28;20032;-80
2023/07/18 06:10:04;;;;;;;12.45;4.28;;;15.30;99.90;;;;;;5069784;28;20774;-80
2023/07/18 06:12:31;;;;;;;10.43;4.22;;;15.40;99.90;;;;;;5102535;28;20543;-80
2023/07/18 06:14:58;;;;;;;13.63;4.07;;;15.50;99.90;;;;;;5086370;28;20128;-80
2023/07/18 06:17:25;;;;;;;9.15;3.78;;;15.50;99.90;;;;;;5069058;28;20040;-79
2023/07/18 06:19:51;;;;;;;15.80;4.00;;;15.60;99.90;;;;;;5103116;28;20079;-79
2023/07/18 06:22:18;;;;;;;9.43;3.78;;;15.60;99.90;;;;;;5069112;28;20473;-79
2023/07/18 06:24:47;;;;;;;12.98;4.18;;;15.70;99.90;;;;;;5086513;28;20079;-78
2023/07/18 06:27:13;;;;;;;11.63;4.22;;;15.80;99.90;;;;;;5086231;28;20048;-79
2023/07/18 06:29:40;;;;;;;17.00;3.85;;;15.90;99.90;;;;;;5069798;28;20040;-79
2023/07/18 06:32:08;;;;;;;15.88;4.40;;;15.90;99.90;;;;;;5086162;28;20139;-79
2023/07/18 06:34:40;;;;;;;13.63;4.00;;;15.80;99.90;;;;;;5085859;28;20511;-79
2023/07/18 06:37:08;;;;;;;14.18;4.68;;;15.90;99.90;;;;;;5085626;28;20562;-79
2023/07/18 06:39:35;;;;;;;14.07;4.80;;;15.90;99.90;;;;;;5085887;28;20504;-79
2023/07/18 06:42:02;;;;;;;11.48;4.10;;;16.00;99.90;;;;;;5071560;28;20033;-79
2023/07/18 06:44:29;;;;;;;18.80;4.35;;;16.00;99.90;;;;;;5106522;28;20102;-78
2023/07/18 06:46:55;;;;;;;13.38;4.40;;;16.10;99.90;;;;;;5106762;28;20052;-79
2023/07/18 06:49:22;;;;;;;15.63;4.18;;;16.10;99.90;;;;;;5089981;28;20056;-80
2023/07/18 06:51:49;;;;;;;13.20;4.47;;;16.20;99.90;;;;;;5114542;28;20551;-79
2023/07/18 06:54:16;;;;;;;14.10;4.80;;;16.20;99.90;;;;;;5065322;28;20438;-78
2023/07/18 06:56:44;;;;;;;11.02;4.00;;;16.30;99.90;;;;;;5062483;28;20063;-79
2023/07/18 06:59:13;;;;;;;12.93;4.47;;;16.40;99.90;;;;;;5057490;28;20076;-79
2023/07/18 07:01:40;;;;;;;12.68;4.82;;;16.50;99.90;;;;;;5089669;28;20055;-79
2023/07/18 07:04:07;;;;;;;14.23;3.83;;;16.60;99.90;;;;;;5056848;28;20496;-81
2023/07/18 07:06:34;;;;;;;13.38;4.10;;;16.70;99.90;;;;;;5089135;28;20129;-79
2023/07/18 07:09:00;;;;;;;8.15;3.65;;;16.70;99.90;;;;;;5068750;28;20779;-78
2023/07/18 07:11:27;;;;;;;15.23;4.07;;;16.80;99.90;;;;;;5056748;28;20048;-79
2023/07/18 07:13:54;;;;;;;9.98;4.03;;;16.90;99.90;;;;;;5064652;28;20041;-80
2023/07/18 07:16:22;;;;;;;13.02;4.20;;;17.00;99.90;;;;;;5071416;28;20093;-79
2023/07/18 07:18:50;;;;;;;13.48;4.00;;;17.10;99.90;;;;;;5071889;28;20066;-80
2023/07/18 07:21:17;;;;;;;12.38;4.32;;;17.20;99.90;;;;;;5105164;28;20055;-81
2023/07/18 07:23:44;;;;;;;11.00;4.43;;;17.20;99.90;;;;;;5071143;28;20040;-80
2023/07/18 07:26:10;;;;;;;12.63;4.50;;;17.30;99.90;;;;;;5084114;28;20119;-80
2023/07/18 07:28:38;;;;;;;10.75;3.67;;;17.40;99.90;;;;;;5072045;28;20036;-80
2023/07/18 07:31:05;;;;;;;16.48;3.75;;;17.50;99.90;;;;;;5092297;28;20499;-81
2023/07/18 07:33:33;;;;;;;15.73;3.88;;;17.60;99.90;;;;;;5090640;28;20051;-80
2023/07/18 07:35:59;;;;;;;16.83;4.35;;;17.70;99.90;;;;;;5083372;28;20037;-79
2023/07/18 07:38:27;;;;;;;15.23;4.50;;;17.90;99.90;;;;;;5099232;28;20039;-79
2023/07/18 07:40:53;;;;;;;11.70;4.40;;;18.00;99.90;;;;;;5108132;28;20079;-80
2023/07/18 07:43:20;;;;;;;10.07;4.70;;;18.10;99.90;;;;;;5091860;28;20086;-79
2023/07/18 07:45:47;;;;;;;12.10;4.38;;;18.10;99.90;;;;;;5075771;28;20481;-79
2023/07/18 07:48:14;;;;;;;12.50;4.22;;;18.10;99.90;;;;;;5104132;28;20056;-79
2023/07/18 07:50:42;;;;;;;17.27;4.35;;;18.20;99.90;;;;;;5086055;28;20051;-80
2023/07/18 07:53:10;;;;;;;11.20;4.22;;;18.40;99.90;;;;;;5091235;28;20043;-80
2023/07/18 07:55:37;;;;;;;13.00;4.22;;;18.50;99.90;;;;;;5045454;28;20071;-79
2023/07/18 07:58:04;;;;;;;12.57;4.30;;;18.60;99.90;;;;;;5087961;28;20044;-79
2023/07/18 08:00:30;;;;;;;13.60;4.10;;;18.60;99.90;;;;;;5071275;28;20048;-79
2023/07/18 08:02:57;;;;;;;12.20;4.28;;;18.70;99.90;;;;;;5093383;28;20115;-79
2023/07/18 08:05:24;;;;;;;14.07;3.97;;;18.60;99.90;;;;;;5048054;28;20118;-79
2023/07/18 08:07:52;;;;;;;11.60;3.83;;;18.80;99.90;;;;;;5065162;28;20046;-79
2023/07/18 08:10:19;;;;;;;13.50;4.20;;;18.80;99.90;;;;;;5040709;28;20776;-80
2023/07/18 08:12:45;;;;;;;12.15;3.85;;;18.80;99.90;;;;;;5057136;28;20039;-80
2023/07/18 08:15:12;;;;;;;10.70;3.85;;;19.00;99.90;;;;;;5046776;28;20086;-80
2023/07/18 08:17:39;;;;;;;14.50;4.47;;;19.10;99.90;;;;;;5057180;28;20044;-81
2023/07/18 08:20:08;;;;;;;12.93;3.50;;;19.10;99.90;;;;;;5087808;28;20093;-80
2023/07/18 08:22:34;;;;;;;16.50;4.22;;;19.30;99.90;;;;;;5074899;28;20078;-81
2023/07/18 08:25:01;;;;;;;15.13;3.83;;;19.40;99.90;;;;;;5054734;28;20401;-80
2023/07/18 08:27:28;;;;;;;9.52;2.92;;;19.60;99.90;;;;;;5069638;28;20058;-79
2023/07/18 08:29:55;;;;;;;12.80;2.97;;;19.70;99.90;;;;;;5053936;28;20131;-79
2023/07/18 08:32:22;;;;;;;13.50;3.30;;;19.80;99.90;;;;;;5054093;28;20041;-80
2023/07/18 08:34:49;;;;;;;10.00;3.50;;;19.80;99.90;;;;;;5086836;28;20040;-80
2023/07/18 08:37:16;;;;;;;9.93;2.65;;;19.90;99.90;;;;;;5087356;28;20040;-82
2023/07/18 08:39:43;;;;;;;8.70;2.72;;;19.90;99.90;;;;;;5070566;28;20044;-81
2023/07/18 08:42:12;;;;;;;12.18;2.92;;;19.90;99.90;;;;;;5071159;28;20040;-81
2023/07/18 08:44:39;;;;;;;8.38;2.95;;;20.10;99.90;;;;;;5086971;28;20048;-83
2023/07/18 08:47:08;;;;;;;13.52;2.75;;;20.20;99.90;;;;;;5121867;28;20052;-80
2023/07/18 08:49:38;;;;;;;10.48;2.70;;;20.20;99.90;;;;;;5078792;28;20047;-79
2023/07/18 08:52:05;;;;;;;9.55;1.92;;;20.20;99.90;;;;;;5062162;28;20040;-79
2023/07/18 08:54:32;;;;;;;10.43;2.67;;;20.30;99.90;;;;;;5080220;28;20393;-79
2023/07/18 08:56:59;;;;;;;8.88;2.20;;;20.20;99.90;;;;;;5059974;28;20056;-79
2023/07/18 08:59:26;;;;;;;9.48;2.55;;;20.00;99.90;;;;;;5081096;28;20039;-79
2023/07/18 09:01:53;;;;;;;8.52;2.10;;;19.90;99.90;;;;;;5100050;28;20036;-79
2023/07/18 09:04:20;;;;;;;6.55;2.03;;;20.00;99.90;;;;;;5075811;28;20084;-80
2023/07/18 09:06:47;;;;;;;6.32;2.17;;;20.00;99.90;;;;;;5066666;28;20468;-80
2023/07/18 09:09:21;;;;;;;10.77;2.45;;;19.90;99.90;;;;;;5089643;28;20357;-80
2023/07/18 09:11:58;;;;;;;7.85;1.77;;;19.90;99.90;;;;;;5074400;28;20062;-80
2023/07/18 09:14:30;;;;;;;7.25;2.13;;;20.10;99.90;;;;;;5107076;28;20036;-80
2023/07/18 09:17:00;;;;;;;8.00;2.30;;;20.10;99.90;;;;;;5077002;28;20489;-80
2023/07/18 09:19:48;;;;;;;9.25;2.38;;;20.10;99.90;;;;;;5053495;28;20040;-79
2023/07/18 09:22:17;;;;;;;12.35;2.70;;;20.10;99.90;;;;;;5086275;28;20500;-79
2023/07/18 09:24:44;;;;;;;11.40;2.50;;;20.20;99.90;;;;;;5085243;28;20097;-80
2023/07/18 09:27:16;;;;;;;7.55;2.20;;;20.40;99.90;;;;;;5054915;28;20081;-79
2023/07/18 09:29:45;;;;;;;8.40;1.90;;;20.50;99.90;;;;;;5069363;28;20045;-79
2023/07/18 09:32:23;;;;;;;8.00;2.13;;;20.50;99.90;;;;;;5052838;28;20075;-80
2023/07/18 09:34:59;;;;;;;6.22;1.90;;;20.70;99.90;;;;;;5053039;28;20461;-79
2023/07/18 09:37:26;;;;;;;6.25;2.25;;;21.10;99.90;;;;;;5053081;28;20040;-79
2023/07/18 09:39:56;;;;;;;7.45;2.17;;;21.30;99.90;;;;;;5052454;28;20044;-79
2023/07/18 09:42:24;;;;;;;8.35;2.15;;;21.50;99.90;;;;;;5070009;28;20068;-79
2023/07/18 09:44:51;;;;;;;8.07;2.13;;;21.50;99.90;;;;;;5053017;28;20044;-80
2023/07/18 09:47:18;;;;;;;7.47;2.20;;;21.60;99.90;;;;;;5053758;28;20052;-80
2023/07/18 09:49:46;;;;;;;7.00;1.92;;;21.70;99.90;;;;;;5074845;28;20386;-80
2023/07/18 09:52:14;;;;;;;11.50;2.80;;;21.80;99.90;;;;;;5069687;28;20042;-80
2023/07/18 09:54:43;;;;;;;9.63;2.30;;;21.70;99.90;;;;;;5068762;28;20036;-79
2023/07/18 09:57:11;;;;;;;6.30;2.00;;;21.70;99.90;;;;;;5069328;28;20080;-79
2023/07/18 09:59:39;;;;;;;8.80;3.45;;;21.60;99.90;;;;;;5068147;28;20496;-79
2023/07/18 10:02:09;;;;;;;6.53;1.98;;;21.50;99.90;;;;;;5111221;28;20033;-80
2023/07/18 10:04:36;;;;;;;11.23;2.35;;;21.30;99.90;;;;;;5077948;28;20119;-79
2023/07/18 10:07:04;;;;;;;5.53;1.67;;;21.20;99.90;;;;;;5094419;28;20090;-79
2023/07/18 10:09:32;;;;;;;7.00;1.95;;;21.40;99.90;;;;;;5061340;28;20135;-79
2023/07/18 10:12:00;;;;;;;10.60;2.03;;;21.40;99.90;;;;;;5094401;28;20047;-80
2023/07/18 10:14:46;;;;;;;9.40;2.25;;;21.50;99.90;;;;;;5078406;28;20044;-79
2023/07/18 10:17:31;;;;;;;10.82;2.30;;;21.40;99.90;;;;;;5092860;28;20524;-79
2023/07/18 10:19:58;;;;;;;7.93;2.47;;;21.30;99.90;;;;;;5093877;28;20432;-79
2023/07/18 10:22:26;;;;;;;9.70;2.20;;;21.20;99.90;;;;;;5053916;28;20052;-79
2023/07/18 10:25:05;;;;;;;8.45;1.90;;;21.00;99.90;;;;;;5061122;28;20032;-79
2023/07/18 10:27:38;;;;;;;11.93;2.25;;;20.80;99.90;;;;;;5048997;28;20202;-80
2023/07/18 10:30:13;;;;;;;7.20;2.05;;;20.60;99.90;;;;;;5098933;28;20045;-80
2023/07/18 10:32:41;;;;;;;8.93;1.98;;;20.50;99.90;;;;;;5065642;28;20052;-80
2023/07/18 10:35:15;;;;;;;12.40;2.20;;;20.60;99.90;;;;;;5085708;28;20051;-80
2023/07/18 10:37:44;;;;;;;6.40;1.80;;;20.70;99.90;;;;;;5107182;28;20062;-80
2023/07/18 10:40:37;;;;;;;7.07;1.98;;;20.80;99.90;;;;;;5076363;28;20044;-80
2023/07/18 10:43:06;;;;;;;7.57;2.00;;;20.90;99.90;;;;;;5067897;28;20045;-80
2023/07/18 10:45:41;;;;;;;5.47;1.50;;;21.00;99.90;;;;;;5072989;28;20094;-80
2023/07/18 10:48:19;;;;;;;6.47;1.85;;;21.20;99.90;;;;;;5117257;28;20048;-79
2023/07/18 10:50:47;;;;;;;5.70;1.30;;;21.70;99.90;;;;;;5068656;28;20574;-80
2023/07/18 10:53:18;;;;;;;7.22;1.75;;;22.20;99.90;;;;;;5067842;28;20460;-80
2023/07/18 10:55:46;;;;;;;10.27;2.10;;;22.60;99.90;;;;;;5084671;28;20053;-80
2023/07/18 10:58:18;;;;;;;7.03;1.77;;;22.90;99.90;;;;;;5085181;28;20044;-80
2023/07/18 11:00:46;;;;;;;7.30;1.70;;;23.00;99.90;;;;;;5067488;28;20044;-80
2023/07/18 11:03:20;;;;;;;4.88;1.40;;;23.30;99.90;;;;;;5068137;28;20124;-79
2023/07/18 11:05:51;;;;;;;6.63;2.10;;;23.40;99.90;;;;;;5084387;28;20527;-80
2023/07/18 11:08:28;;;;;;;7.72;1.83;;;23.40;99.90;;;;;;5101538;28;20047;-80
2023/07/18 11:11:03;;;;;;;8.23;1.73;;;23.40;99.90;;;;;;5118055;28;20407;-80
2023/07/18 11:13:35;;;;;;;8.05;1.88;;;23.40;99.90;;;;;;5068043;28;20045;-80
2023/07/18 11:16:23;;;;;;;5.53;1.60;;;23.60;99.90;;;;;;5067630;28;20036;-81
2023/07/18 11:18:50;;;;;;;4.32;1.70;;;23.70;99.90;;;;;;5101382;28;20044;-80
2023/07/18 11:21:18;;;;;;;5.50;1.48;;;23.70;99.90;;;;;;5084742;28;20607;-80
2023/07/18 11:23:45;;;;;;;9.75;2.35;;;23.70;99.90;;;;;;5067151;28;20050;-80
2023/07/18 11:26:18;;;;;;;5.90;1.58;;;23.70;99.90;;;;;;5068466;28;20503;-80
2023/07/18 11:28:48;;;;;;;6.35;1.90;;;23.70;99.90;;;;;;5109719;28;20042;-80
2023/07/18 11:31:41;;;;;;;6.80;1.55;;;23.30;99.90;;;;;;5079445;28;20110;-80
2023/07/18 11:34:09;;;;;;;7.38;1.83;;;23.00;99.90;;;;;;5068315;28;20036;-80
2023/07/18 11:36:36;;;;;;;6.13;1.70;;;22.80;99.90;;;;;;5071763;28;20397;-80
2023/07/18 11:39:17;;;;;;;6.50;1.70;;;22.50;99.90;;;;;;5087834;28;20051;-80
2023/07/18 11:41:44;;;;;;;4.93;1.30;;;22.20;99.90;;;;;;5088098;28;20421;-80
2023/07/18 11:44:11;;;;;;;6.85;1.55;;;21.90;99.90;;;;;;5071144;28;20048;-80
2023/07/18 11:46:39;;;;;;;3.92;1.38;;;21.80;99.90;;;;;;5070923;28;20032;-81
2023/07/18 11:49:06;;;;;;;10.20;1.50;;;21.80;99.90;;;;;;5104336;28;20052;-80
2023/07/18 11:51:33;;;;;;;6.57;1.75;;;21.60;99.90;;;;;;5088429;28;20071;-81
2023/07/18 11:54:01;;;;;;;4.72;1.73;;;21.50;99.90;;;;;;5103626;28;20044;-80
2023/07/18 11:56:29;;;;;;;7.15;1.70;;;21.40;99.90;;;;;;5087754;28;20036;-79
2023/07/18 11:58:56;;;;;;;4.70;1.50;;;21.40;99.90;;;;;;5087549;28;20420;-80
2023/07/18 12:01:23;;;;;;;5.43;1.65;;;21.40;99.90;;;;;;5070878;28;20045;-80
2023/07/18 12:03:53;;;;;;;4.72;1.42;;;21.40;99.90;;;;;;5070866;28;20036;-80
2023/07/18 12:06:21;;;;;;;8.85;1.75;;;21.40;99.90;;;;;;5071452;28;20047;-80
2023/07/18 12:08:50;;;;;;;9.15;1.90;;;21.40;99.90;;;;;;5104094;28;20047;-80
2023/07/18 12:11:17;;;;;;;8.25;1.80;;;21.30;99.90;;;;;;5104589;28;20051;-80
2023/07/18 12:13:44;;;;;;;9.82;2.33;;;21.30;99.90;;;;;;5071714;28;20151;-80
2023/07/18 12:16:11;;;;;;;6.97;1.63;;;21.30;99.90;;;;;;5103568;28;20433;-80
2023/07/18 12:18:38;;;;;;;8.80;1.67;;;21.30;99.90;;;;;;5104343;28;20048;-79
2023/07/18 12:21:05;;;;;;;6.00;1.52;;;21.30;99.90;;;;;;5087444;28;20047;-79
2023/07/18 12:23:31;;;;;;;5.97;1.60;;;21.20;99.90;;;;;;5086990;28;20041;-79
2023/07/18 12:25:59;;;;;;;8.52;1.40;;;21.20;99.90;;;;;;5070600;28;20043;-79
2023/07/18 12:28:25;;;;;;;7.75;1.50;;;21.20;99.90;;;;;;5086858;28;20040;-79
2023/07/18 12:30:52;;;;;;;7.43;1.75;;;21.20;99.90;;;;;;5087131;28;20037;-79
2023/07/18 12:33:21;;;;;;;5.85;1.35;;;21.10;99.90;;;;;;5103714;28;20045;-80
2023/07/18 12:35:47;;;;;;;4.97;1.48;;;21.00;99.90;;;;;;5070889;28;20040;-79
2023/07/18 12:38:15;;;;;;;9.68;1.60;;;21.00;99.90;;;;;;5085693;28;20048;-79
2023/07/18 12:40:42;;;;;;;3.97;1.55;;;21.00;99.90;;;;;;5070048;28;20048;-80
2023/07/18 12:43:08;;;;;;;7.78;1.75;;;21.00;99.90;;;;;;5086922;28;20048;-79
2023/07/18 12:45:35;;;;;;;6.18;1.30;;;21.00;99.90;;;;;;5087108;28;20500;-80
2023/07/18 12:48:02;;;;;;;4.55;1.38;;;21.00;99.90;;;;;;5086244;28;20123;-79